createdAt,value
2023-03-02T00:00:49.200Z,-0.72
2023-03-02T00:01:49.212Z,-0.68
2023-03-02T00:02:50.268Z,-0.64
2023-03-02T00:03:49.262Z,-0.57
2023-03-02T00:04:49.249Z,-0.35
2023-03-02T00:05:49.169Z,-0.31
2023-03-02T00:06:49.198Z,-0.23
2023-03-02T00:07:49.170Z,-0.23
2023-03-02T00:08:49.162Z,-0.18
2023-03-02T00:09:49.229Z,-0.08
2023-03-02T00:10:49.220Z,-0.10
2023-03-02T00:11:49.195Z,0.01
2023-03-02T00:12:49.148Z,0.10
2023-03-02T00:13:49.133Z,0.00
2023-03-02T00:14:49.158Z,-0.15
2023-03-02T00:15:49.158Z,-0.38
2023-03-02T00:16:49.122Z,-0.49
2023-03-02T00:17:49.104Z,-0.75
2023-03-02T00:18:49.118Z,-1.11
2023-03-02T00:19:49.095Z,-1.30
2023-03-02T00:20:49.091Z,-1.29
2023-03-02T00:21:49.101Z,-1.11
2023-03-02T00:22:49.086Z,-1.09
2023-03-02T00:23:49.062Z,-1.02
2023-03-02T00:24:49.062Z,-1.19
2023-03-02T00:25:50.056Z,-1.27
2023-03-02T00:26:49.065Z,-1.26
2023-03-02T00:27:49.041Z,-1.40
2023-03-02T00:28:49.039Z,-1.35
2023-03-02T00:29:49.035Z,-1.48
2023-03-02T00:30:49.042Z,-1.50
2023-03-02T00:31:49.056Z,-1.51
2023-03-02T00:32:49.002Z,-1.43
2023-03-02T00:33:49.009Z,-1.54
2023-03-02T00:34:48.994Z,-1.59
2023-03-02T00:35:49.027Z,-1.58
2023-03-02T00:36:49.019Z,-1.43
2023-03-02T00:37:48.992Z,-1.50
2023-03-02T00:38:48.973Z,-1.50
2023-03-02T00:39:48.967Z,-1.50
2023-03-02T00:40:48.958Z,-1.65
2023-03-02T00:41:49.956Z,-1.51
2023-03-02T00:42:48.986Z,-1.25
2023-03-02T00:43:48.940Z,-1.20
2023-03-02T00:44:48.936Z,-1.14
2023-03-02T00:45:48.930Z,-0.91
2023-03-02T00:46:48.979Z,-0.93
2023-03-02T00:47:48.909Z,-0.72
2023-03-02T00:48:48.912Z,-0.70
2023-03-02T00:49:48.921Z,-0.57
2023-03-02T00:50:48.896Z,-0.43
2023-03-02T00:51:48.907Z,-0.38
2023-03-02T00:52:48.884Z,-0.46
2023-03-02T00:53:48.883Z,-0.26
2023-03-02T00:54:48.872Z,-0.36
2023-03-02T00:55:48.873Z,-0.31
2023-03-02T00:56:48.874Z,-0.23
2023-03-02T00:57:49.036Z,-0.18
2023-03-02T00:58:48.865Z,-0.11
2023-03-02T00:59:48.828Z,-0.14
2023-03-02T01:00:48.825Z,-0.26
2023-03-02T01:01:48.826Z,-0.32
2023-03-02T01:02:48.979Z,-0.32
2023-03-02T01:03:48.808Z,-0.25
2023-03-02T01:04:48.800Z,-0.25
2023-03-02T01:05:48.810Z,-0.17
2023-03-02T01:06:48.798Z,-0.31
2023-03-02T01:07:48.791Z,-0.34
2023-03-02T01:08:48.812Z,-0.32
2023-03-02T01:09:48.779Z,-0.26
2023-03-02T01:10:48.771Z,-0.18
2023-03-02T01:11:48.771Z,-0.18
2023-03-02T01:12:48.762Z,-0.23
2023-03-02T01:13:48.763Z,-0.29
2023-03-02T01:14:48.751Z,-0.35
2023-03-02T01:15:48.787Z,-0.29
2023-03-02T01:16:48.767Z,-0.28
2023-03-02T01:17:48.722Z,-0.28
2023-03-02T01:18:48.718Z,-0.43
2023-03-02T01:19:48.711Z,-0.32
2023-03-02T01:20:48.704Z,-0.29
2023-03-02T01:21:48.731Z,-0.18
2023-03-02T01:22:48.693Z,-0.14
2023-03-02T01:23:48.689Z,-0.13
2023-03-02T01:24:48.740Z,-0.15
2023-03-02T01:25:48.734Z,-0.18
2023-03-02T01:26:48.742Z,-0.11
2023-03-02T01:27:48.682Z,-0.06
2023-03-02T01:28:50.033Z,-0.11
2023-03-02T01:29:49.690Z,-0.11
2023-03-02T01:30:48.653Z,0.00
2023-03-02T01:31:48.773Z,-0.06
2023-03-02T01:32:48.685Z,0.00
2023-03-02T01:33:49.431Z,0.05
2023-03-02T01:34:48.658Z,0.08
2023-03-02T01:35:48.778Z,0.03
2023-03-02T01:36:48.648Z,-0.06
2023-03-02T01:37:48.667Z,0.03
2023-03-02T01:38:48.711Z,0.01
2023-03-02T01:39:48.673Z,-0.03
2023-03-02T01:40:48.725Z,-0.08
2023-03-02T01:41:48.593Z,-0.06
2023-03-02T01:42:48.572Z,-0.03
2023-03-02T01:43:48.600Z,-0.13
2023-03-02T01:44:48.590Z,-0.11
2023-03-02T01:45:48.717Z,-0.20
2023-03-02T01:46:48.560Z,-0.13
2023-03-02T01:47:48.543Z,-0.18
2023-03-02T01:48:48.528Z,-0.25
2023-03-02T01:49:48.527Z,-0.26
2023-03-02T01:50:48.529Z,-0.23
2023-03-02T01:51:48.546Z,-0.21
2023-03-02T01:52:48.567Z,-0.35
2023-03-02T01:53:48.509Z,-0.31
2023-03-02T01:54:48.492Z,-0.39
2023-03-02T01:55:48.503Z,-0.35
2023-03-02T01:56:48.524Z,-0.34
2023-03-02T01:57:48.533Z,-0.26
2023-03-02T01:58:48.528Z,-0.34
2023-03-02T01:59:48.492Z,-0.39
2023-03-02T02:00:48.580Z,-0.34
2023-03-02T02:01:48.477Z,-0.35
2023-03-02T02:02:48.513Z,-0.41
2023-03-02T02:03:48.567Z,-0.35
2023-03-02T02:04:48.439Z,-0.43
2023-03-02T02:05:48.438Z,-0.47
2023-03-02T02:06:48.447Z,-0.41
2023-03-02T02:07:48.453Z,-0.36
2023-03-02T02:08:48.457Z,-0.35
2023-03-02T02:09:48.400Z,-0.44
2023-03-02T02:10:48.443Z,-0.41
2023-03-02T02:11:48.410Z,-0.44
2023-03-02T02:12:48.494Z,-0.43
2023-03-02T02:13:48.410Z,-0.28
2023-03-02T02:14:48.415Z,-0.34
2023-03-02T02:15:48.371Z,-0.35
2023-03-02T02:16:48.445Z,-0.31
2023-03-02T02:17:49.437Z,-0.29
2023-03-02T02:18:48.363Z,-0.23
2023-03-02T02:19:48.340Z,-0.28
2023-03-02T02:20:48.335Z,-0.32
2023-03-02T02:21:48.317Z,-0.31
2023-03-02T02:22:48.338Z,-0.26
2023-03-02T02:23:48.315Z,-0.29
2023-03-02T02:24:48.321Z,-0.25
2023-03-02T02:25:48.298Z,-0.31
2023-03-02T02:26:48.293Z,-0.28
2023-03-02T02:27:48.309Z,-0.14
2023-03-02T02:28:48.286Z,-0.17
2023-03-02T02:29:48.299Z,-0.17
2023-03-02T02:30:48.298Z,-0.28
2023-03-02T02:31:48.381Z,-0.31
2023-03-02T02:32:48.468Z,-0.20
2023-03-02T02:33:48.292Z,-0.15
2023-03-02T02:34:48.320Z,-0.08
2023-03-02T02:35:48.302Z,-0.18
2023-03-02T02:36:48.255Z,-0.13
2023-03-02T02:37:48.328Z,-0.06
2023-03-02T02:38:48.271Z,0.07
2023-03-02T02:39:48.247Z,-0.02
2023-03-02T02:40:48.273Z,0.00
2023-03-02T02:41:48.233Z,-0.03
2023-03-02T02:42:48.918Z,-0.02
2023-03-02T02:43:48.219Z,-0.02
2023-03-02T02:44:48.218Z,-0.13
2023-03-02T02:45:48.284Z,-0.13
2023-03-02T02:46:48.167Z,-0.07
2023-03-02T02:47:48.246Z,-0.10
2023-03-02T02:48:48.160Z,-0.14
2023-03-02T02:49:48.206Z,-0.15
2023-03-02T02:50:48.140Z,-0.14
2023-03-02T02:51:48.189Z,-0.14
2023-03-02T02:52:48.219Z,-0.10
2023-03-02T02:53:48.189Z,-0.23
2023-03-02T02:54:48.170Z,-0.21
2023-03-02T02:55:48.867Z,-0.26
2023-03-02T02:56:48.146Z,-0.29
2023-03-02T02:57:48.137Z,-0.26
2023-03-02T02:58:48.127Z,-0.20
2023-03-02T02:59:48.926Z,-0.34
2023-03-02T03:00:48.190Z,-0.23
2023-03-02T03:01:48.188Z,-0.20
2023-03-02T03:02:48.116Z,-0.28
2023-03-02T03:03:48.196Z,-0.23
2023-03-02T03:04:48.215Z,-0.23
2023-03-02T03:05:48.131Z,-0.14
2023-03-02T03:06:49.093Z,-0.21
2023-03-02T03:07:48.093Z,-0.21
2023-03-02T03:08:48.113Z,-0.23
2023-03-02T03:09:48.136Z,-0.10
2023-03-02T03:10:48.010Z,-0.18
2023-03-02T03:11:48.007Z,-0.03
2023-03-02T03:12:48.088Z,-0.14
2023-03-02T03:13:48.038Z,-0.10
2023-03-02T03:14:49.110Z,-0.08
2023-03-02T03:15:48.001Z,-0.11
2023-03-02T03:16:48.085Z,-0.07
2023-03-02T03:17:48.082Z,-0.13
2023-03-02T03:18:47.976Z,-0.08
2023-03-02T03:19:48.019Z,-0.02
2023-03-02T03:20:48.066Z,0.05
2023-03-02T03:21:47.943Z,0.00
2023-03-02T03:22:47.979Z,-0.03
2023-03-02T03:23:47.925Z,0.01
2023-03-02T03:24:47.913Z,0.01
2023-03-02T03:25:47.921Z,0.00
2023-03-02T03:26:47.916Z,-0.03
2023-03-02T03:27:47.927Z,-0.08
2023-03-02T03:28:47.940Z,-0.06
2023-03-02T03:29:47.893Z,-0.10
2023-03-02T03:30:47.991Z,-0.14
2023-03-02T03:31:47.877Z,-0.10
2023-03-02T03:32:47.889Z,-0.11
2023-03-02T03:33:47.877Z,-0.02
2023-03-02T03:34:47.858Z,-0.03
2023-03-02T03:35:47.930Z,-0.06
2023-03-02T03:36:47.854Z,0.04
2023-03-02T03:37:47.888Z,0.00
2023-03-02T03:38:47.850Z,-0.02
2023-03-02T03:39:47.839Z,0.01
2023-03-02T03:40:47.831Z,0.04
2023-03-02T03:41:47.821Z,-0.14
2023-03-02T03:42:47.831Z,-0.06
2023-03-02T03:43:47.789Z,-0.14
2023-03-02T03:44:48.814Z,-0.03
2023-03-02T03:45:47.847Z,0.00
2023-03-02T03:46:47.792Z,0.15
2023-03-02T03:47:47.799Z,0.11
2023-03-02T03:48:47.776Z,0.11
2023-03-02T03:49:47.761Z,0.08
2023-03-02T03:50:47.761Z,0.05
2023-03-02T03:51:47.741Z,0.11
2023-03-02T03:52:48.767Z,0.00
2023-03-02T03:53:47.736Z,0.19
2023-03-02T03:54:47.724Z,0.12
2023-03-02T03:55:47.721Z,0.12
2023-03-02T03:56:47.723Z,0.16
2023-03-02T03:57:47.744Z,-0.11
2023-03-02T03:58:47.712Z,0.07
2023-03-02T03:59:47.701Z,-0.08
2023-03-02T04:00:47.704Z,-0.07
2023-03-02T04:01:47.738Z,-0.17
2023-03-02T04:02:47.746Z,-0.17
2023-03-02T04:03:47.665Z,-0.08
2023-03-02T04:04:47.755Z,-0.10
2023-03-02T04:05:47.669Z,-0.11
2023-03-02T04:06:47.641Z,-0.15
2023-03-02T04:07:47.646Z,-0.21
2023-03-02T04:08:47.620Z,-0.26
2023-03-02T04:09:47.746Z,-0.31
2023-03-02T04:10:47.620Z,-0.31
2023-03-02T04:11:47.601Z,-0.26
2023-03-02T04:12:47.626Z,-0.25
2023-03-02T04:13:47.600Z,-0.21
2023-03-02T04:14:47.595Z,-0.10
2023-03-02T04:15:47.625Z,-0.14
2023-03-02T04:16:47.590Z,-0.15
2023-03-02T04:17:47.598Z,-0.10
2023-03-02T04:18:47.571Z,-0.17
2023-03-02T04:19:47.550Z,-0.15
2023-03-02T04:20:47.553Z,-0.18
2023-03-02T04:21:47.546Z,-0.15
2023-03-02T04:22:47.562Z,-0.14
2023-03-02T04:23:47.535Z,-0.08
2023-03-02T04:24:47.538Z,-0.23
2023-03-02T04:25:47.521Z,-0.03
2023-03-02T04:26:47.538Z,-0.10
2023-03-02T04:27:47.537Z,-0.11
2023-03-02T04:28:47.511Z,-0.10
2023-03-02T04:29:47.501Z,-0.14
2023-03-02T04:30:47.542Z,-0.07
2023-03-02T04:31:47.484Z,-0.10
2023-03-02T04:32:47.500Z,-0.17
2023-03-02T04:33:47.470Z,-0.20
2023-03-02T04:34:47.476Z,-0.18
2023-03-02T04:35:47.475Z,-0.26
2023-03-02T04:36:47.455Z,-0.29
2023-03-02T04:37:47.484Z,-0.26
2023-03-02T04:38:47.441Z,-0.31
2023-03-02T04:39:47.565Z,-0.35
2023-03-02T04:40:47.428Z,-0.36
2023-03-02T04:41:47.420Z,-0.28
2023-03-02T04:42:47.470Z,-0.34
2023-03-02T04:43:47.416Z,-0.36
2023-03-02T04:44:47.438Z,-0.38
2023-03-02T04:45:47.411Z,-0.43
2023-03-02T04:46:47.441Z,-0.34
2023-03-02T04:47:47.441Z,-0.32
2023-03-02T04:48:47.405Z,-0.32
2023-03-02T04:49:47.388Z,-0.35
2023-03-02T04:50:47.374Z,-0.36
2023-03-02T04:51:47.378Z,-0.47
2023-03-02T04:52:47.445Z,-0.44
2023-03-02T04:53:47.359Z,-0.53
2023-03-02T04:54:47.366Z,-0.43
2023-03-02T04:55:47.348Z,-0.52
2023-03-02T04:56:47.337Z,-0.44
2023-03-02T04:57:47.362Z,-0.36
2023-03-02T04:58:47.332Z,-0.41
2023-03-02T04:59:47.428Z,-0.31
2023-03-02T05:00:48.542Z,-0.34
2023-03-02T05:01:47.485Z,-0.38
2023-03-02T05:02:47.323Z,-0.31
2023-03-02T05:03:47.320Z,-0.31
2023-03-02T05:04:47.315Z,-0.28
2023-03-02T05:05:47.343Z,-0.34
2023-03-02T05:06:47.334Z,-0.35
2023-03-02T05:07:47.366Z,-0.35
2023-03-02T05:08:47.262Z,-0.20
2023-03-02T05:09:47.253Z,-0.07
2023-03-02T05:10:47.247Z,-0.18
2023-03-02T05:11:47.243Z,-0.11
2023-03-02T05:12:47.264Z,-0.23
2023-03-02T05:13:47.218Z,-0.17
2023-03-02T05:14:47.217Z,-0.25
2023-03-02T05:15:47.254Z,-0.18
2023-03-02T05:16:47.204Z,-0.28
2023-03-02T05:17:47.204Z,-0.29
2023-03-02T05:18:47.205Z,-0.17
2023-03-02T05:19:47.198Z,-0.18
2023-03-02T05:20:47.190Z,-0.29
2023-03-02T05:21:47.183Z,-0.17
2023-03-02T05:22:47.162Z,-0.14
2023-03-02T05:23:47.183Z,-0.18
2023-03-02T05:24:47.163Z,-0.20
2023-03-02T05:25:47.152Z,-0.21
2023-03-02T05:26:47.138Z,-0.26
2023-03-02T05:27:47.147Z,-0.29
2023-03-02T05:28:47.169Z,-0.25
2023-03-02T05:29:47.242Z,-0.31
2023-03-02T05:30:47.117Z,-0.25
2023-03-02T05:31:47.253Z,-0.31
2023-03-02T05:32:47.108Z,-0.34
2023-03-02T05:33:47.122Z,-0.29
2023-03-02T05:34:47.100Z,-0.26
2023-03-02T05:35:47.106Z,-0.34
2023-03-02T05:36:47.095Z,-0.34
2023-03-02T05:37:47.074Z,-0.34
2023-03-02T05:38:47.110Z,-0.25
2023-03-02T05:39:47.052Z,-0.25
2023-03-02T05:40:47.072Z,-0.29
2023-03-02T05:41:47.054Z,-0.34
2023-03-02T05:42:47.045Z,-0.34
2023-03-02T05:43:47.059Z,-0.36
2023-03-02T05:44:47.031Z,-0.43
2023-03-02T05:45:47.065Z,-0.43
2023-03-02T05:46:47.054Z,-0.43
2023-03-02T05:47:47.018Z,-0.38
2023-03-02T05:48:47.018Z,-0.47
2023-03-02T05:49:46.992Z,-0.52
2023-03-02T05:50:46.987Z,-0.41
2023-03-02T05:51:46.999Z,-0.49
2023-03-02T05:52:46.972Z,-0.38
2023-03-02T05:53:47.013Z,-0.50
2023-03-02T05:54:46.992Z,-0.53
2023-03-02T05:55:46.950Z,-0.50
2023-03-02T05:56:48.898Z,-0.50
2023-03-02T05:57:46.939Z,-0.50
2023-03-02T05:58:47.000Z,-0.41
2023-03-02T05:59:46.917Z,-0.54
2023-03-02T06:00:46.919Z,-0.36
2023-03-02T06:01:46.952Z,-0.38
2023-03-02T06:02:46.933Z,-0.41
2023-03-02T06:03:46.917Z,-0.36
2023-03-02T06:04:46.897Z,-0.41
2023-03-02T06:05:46.878Z,-0.46
2023-03-02T06:06:46.875Z,-0.39
2023-03-02T06:07:46.879Z,-0.54
2023-03-02T06:08:46.888Z,-0.34
2023-03-02T06:09:46.861Z,-0.44
2023-03-02T06:10:46.880Z,-0.52
2023-03-02T06:11:46.849Z,-0.56
2023-03-02T06:12:46.857Z,-0.49
2023-03-02T06:13:46.880Z,-0.56
2023-03-02T06:14:46.830Z,-0.56
2023-03-02T06:15:46.815Z,-0.56
2023-03-02T06:16:46.917Z,-0.64
2023-03-02T06:17:46.803Z,-0.61
2023-03-02T06:18:46.836Z,-0.59
2023-03-02T06:19:46.794Z,-0.56
2023-03-02T06:20:46.819Z,-0.65
2023-03-02T06:21:46.792Z,-0.59
2023-03-02T06:22:46.806Z,-0.64
2023-03-02T06:23:46.793Z,-0.62
2023-03-02T06:24:46.786Z,-0.64
2023-03-02T06:25:46.783Z,-0.62
2023-03-02T06:26:46.771Z,-0.65
2023-03-02T06:27:46.748Z,-0.74
2023-03-02T06:28:52.978Z,-0.70
2023-03-02T06:29:48.739Z,-0.62
2023-03-02T06:30:46.735Z,-0.70
2023-03-02T06:31:46.809Z,-0.74
2023-03-02T06:32:46.806Z,-0.72
2023-03-02T06:33:46.823Z,-0.64
2023-03-02T06:34:46.758Z,-0.70
2023-03-02T06:35:46.794Z,-0.67
2023-03-02T06:36:46.714Z,-0.65
2023-03-02T06:37:46.725Z,-0.46
2023-03-02T06:38:46.707Z,-0.35
2023-03-02T06:39:46.713Z,-0.41
2023-03-02T06:40:46.694Z,-0.23
2023-03-02T06:41:46.664Z,-0.29
2023-03-02T06:42:46.680Z,-0.26
2023-03-02T06:43:46.660Z,-0.31
2023-03-02T06:44:46.645Z,-0.23
2023-03-02T06:45:46.642Z,-0.14
2023-03-02T06:46:46.626Z,-0.07
2023-03-02T06:47:46.639Z,-0.08
2023-03-02T06:48:46.639Z,-0.10
2023-03-02T06:49:46.620Z,-0.06
2023-03-02T06:50:46.596Z,0.01
2023-03-02T06:51:46.598Z,0.08
2023-03-02T06:52:46.599Z,0.12
2023-03-02T06:53:46.608Z,0.16
2023-03-02T06:54:46.579Z,0.11
2023-03-02T06:55:46.579Z,0.25
2023-03-02T06:56:46.569Z,0.31
2023-03-02T06:57:46.564Z,0.37
2023-03-02T06:58:46.583Z,0.50
2023-03-02T06:59:46.557Z,0.60
2023-03-02T07:00:46.619Z,0.60
2023-03-02T07:01:46.557Z,0.68
2023-03-02T07:02:46.533Z,0.76
2023-03-02T07:03:46.616Z,0.69
2023-03-02T07:04:46.526Z,0.84
2023-03-02T07:05:46.543Z,0.81
2023-03-02T07:06:46.501Z,0.81
2023-03-02T07:07:46.504Z,0.91
2023-03-02T07:08:46.533Z,0.92
2023-03-02T07:09:46.497Z,0.98
2023-03-02T07:10:46.495Z,0.98
2023-03-02T07:11:46.483Z,0.99
2023-03-02T07:12:46.465Z,1.14
2023-03-02T07:13:46.486Z,1.19
2023-03-02T07:14:46.472Z,1.35
2023-03-02T07:15:46.442Z,1.32
2023-03-02T07:16:46.507Z,1.50
2023-03-02T07:17:46.449Z,1.40
2023-03-02T07:18:46.498Z,1.48
2023-03-02T07:19:46.425Z,1.45
2023-03-02T07:20:46.426Z,1.58
2023-03-02T07:21:46.534Z,1.68
2023-03-02T07:22:46.434Z,1.63
2023-03-02T07:23:51.079Z,1.60
2023-03-02T07:24:46.430Z,1.63
2023-03-02T07:25:46.405Z,1.70
2023-03-02T07:26:46.437Z,1.71
2023-03-02T07:27:46.406Z,1.76
2023-03-02T07:28:46.449Z,1.76
2023-03-02T07:29:46.357Z,1.84
2023-03-02T07:30:46.390Z,1.77
2023-03-02T07:31:46.360Z,1.99
2023-03-02T07:32:46.343Z,1.95
2023-03-02T07:33:46.345Z,2.04
2023-03-02T07:34:46.319Z,2.14
2023-03-02T07:35:46.364Z,2.15
2023-03-02T07:36:46.309Z,2.22
2023-03-02T07:37:46.306Z,2.28
2023-03-02T07:38:46.322Z,2.26
2023-03-02T07:39:46.295Z,2.42
2023-03-02T07:40:46.287Z,2.29
2023-03-02T07:41:46.296Z,2.47
2023-03-02T07:42:46.275Z,2.42
2023-03-02T07:43:46.284Z,2.51
2023-03-02T07:44:46.288Z,2.64
2023-03-02T07:45:46.258Z,2.51
2023-03-02T07:46:46.284Z,2.62
2023-03-02T07:47:46.249Z,2.79
2023-03-02T07:48:46.257Z,2.87
2023-03-02T07:49:46.223Z,2.79
2023-03-02T07:50:46.222Z,2.97
2023-03-02T07:51:46.241Z,2.89
2023-03-02T07:52:46.205Z,3.03
2023-03-02T07:53:46.249Z,3.04
2023-03-02T07:54:46.212Z,3.05
2023-03-02T07:55:46.194Z,3.22
2023-03-02T07:56:46.213Z,3.19
2023-03-02T07:57:46.180Z,3.26
2023-03-02T07:58:46.198Z,3.36
2023-03-02T07:59:46.172Z,3.47
2023-03-02T08:00:46.161Z,3.53
2023-03-02T08:01:46.206Z,3.45
2023-03-02T08:02:46.187Z,3.59
2023-03-02T08:03:46.165Z,3.60
2023-03-02T08:04:46.137Z,3.60
2023-03-02T08:05:46.133Z,3.69
2023-03-02T08:06:46.129Z,3.68
2023-03-02T08:07:46.121Z,3.70
2023-03-02T08:08:46.187Z,3.81
2023-03-02T08:09:46.112Z,3.91
2023-03-02T08:10:46.104Z,3.94
2023-03-02T08:11:46.097Z,3.95
2023-03-02T08:12:46.084Z,3.98
2023-03-02T08:13:46.086Z,4.08
2023-03-02T08:14:46.072Z,4.05
2023-03-02T08:15:46.189Z,4.08
2023-03-02T08:16:46.053Z,4.08
2023-03-02T08:17:46.057Z,4.05
2023-03-02T08:18:46.077Z,4.23
2023-03-02T08:19:46.037Z,4.19
2023-03-02T08:20:46.041Z,4.22
2023-03-02T08:21:46.032Z,4.28
2023-03-02T08:22:46.027Z,4.30
2023-03-02T08:23:46.105Z,4.34
2023-03-02T08:24:46.006Z,4.38
2023-03-02T08:25:46.055Z,4.42
2023-03-02T08:26:46.002Z,4.59
2023-03-02T08:27:45.985Z,4.56
2023-03-02T08:28:46.045Z,4.60
2023-03-02T08:29:45.977Z,4.67
2023-03-02T08:30:45.977Z,4.68
2023-03-02T08:31:46.006Z,4.75
2023-03-02T08:32:46.039Z,4.71
2023-03-02T08:33:46.027Z,4.87
2023-03-02T08:34:45.938Z,4.89
2023-03-02T08:35:45.986Z,4.93
2023-03-02T08:36:45.927Z,5.04
2023-03-02T08:37:45.913Z,5.00
2023-03-02T08:38:45.933Z,5.14
2023-03-02T08:39:45.898Z,5.30
2023-03-02T08:40:45.894Z,5.11
2023-03-02T08:41:45.899Z,5.26
2023-03-02T08:42:45.873Z,5.17
2023-03-02T08:43:45.894Z,5.18
2023-03-02T08:44:45.860Z,5.44
2023-03-02T08:45:45.898Z,5.36
2023-03-02T08:46:45.843Z,5.43
2023-03-02T08:47:45.834Z,5.41
2023-03-02T08:48:45.840Z,5.32
2023-03-02T08:49:47.994Z,5.47
2023-03-02T08:50:45.807Z,5.47
2023-03-02T08:51:45.804Z,5.41
2023-03-02T08:52:45.796Z,5.35
2023-03-02T08:53:45.793Z,5.39
2023-03-02T08:54:45.857Z,5.47
2023-03-02T08:55:45.778Z,5.57
2023-03-02T08:56:45.768Z,5.68
2023-03-02T08:57:45.751Z,5.83
2023-03-02T08:58:45.759Z,5.87
2023-03-02T08:59:45.780Z,5.93
2023-03-02T09:00:45.832Z,6.11
2023-03-02T09:01:45.824Z,6.31
2023-03-02T09:02:45.731Z,6.09
2023-03-02T09:03:45.721Z,6.17
2023-03-02T09:04:45.788Z,6.31
2023-03-02T09:05:45.710Z,6.27
2023-03-02T09:06:45.696Z,6.27
2023-03-02T09:07:45.689Z,6.14
2023-03-02T09:08:45.705Z,6.20
2023-03-02T09:09:45.772Z,6.31
2023-03-02T09:10:45.666Z,6.45
2023-03-02T09:11:45.659Z,6.51
2023-03-02T09:12:45.670Z,6.41
2023-03-02T09:13:45.666Z,6.52
2023-03-02T09:14:45.666Z,6.75
2023-03-02T09:15:45.632Z,6.93
2023-03-02T09:16:45.678Z,6.95
2023-03-02T09:17:45.620Z,7.20
2023-03-02T09:18:45.604Z,7.36
2023-03-02T09:19:45.625Z,7.56
2023-03-02T09:20:45.595Z,7.80
2023-03-02T09:21:45.600Z,8.08
2023-03-02T09:22:45.581Z,8.10
2023-03-02T09:23:45.576Z,8.28
2023-03-02T09:24:45.598Z,8.41
2023-03-02T09:25:46.405Z,8.38
2023-03-02T09:26:46.550Z,8.38
2023-03-02T09:27:45.563Z,8.33
2023-03-02T09:28:45.541Z,8.19
2023-03-02T09:29:45.565Z,8.61
2023-03-02T09:30:46.544Z,8.52
2023-03-02T09:31:45.578Z,8.78
2023-03-02T09:32:45.687Z,8.94
2023-03-02T09:33:45.528Z,9.10
2023-03-02T09:34:45.534Z,9.00
2023-03-02T09:35:45.544Z,9.25
2023-03-02T09:36:45.505Z,9.54
2023-03-02T09:37:45.593Z,9.82
2023-03-02T09:38:45.496Z,10.04
2023-03-02T09:39:45.573Z,10.51
2023-03-02T09:40:45.502Z,10.60
2023-03-02T09:41:45.469Z,10.76
2023-03-02T09:42:45.505Z,10.74
2023-03-02T09:43:45.466Z,10.79
2023-03-02T09:44:45.462Z,10.72
2023-03-02T09:45:46.472Z,10.96
2023-03-02T09:46:45.443Z,10.75
2023-03-02T09:47:45.483Z,11.10
2023-03-02T09:48:45.453Z,11.14
2023-03-02T09:49:45.513Z,11.14
2023-03-02T09:50:45.443Z,11.04
2023-03-02T09:51:45.393Z,10.94
2023-03-02T09:52:45.385Z,11.66
2023-03-02T09:53:45.375Z,11.97
2023-03-02T09:54:45.505Z,12.00
2023-03-02T09:55:45.376Z,11.87
2023-03-02T09:56:45.368Z,11.68
2023-03-02T09:57:45.356Z,11.45
2023-03-02T09:58:45.342Z,11.57
2023-03-02T09:59:45.360Z,12.06
2023-03-02T10:00:45.339Z,11.94
2023-03-02T10:01:45.319Z,12.15
2023-03-02T10:02:45.343Z,11.99
2023-03-02T10:03:45.482Z,12.24
2023-03-02T10:04:45.391Z,12.45
2023-03-02T10:05:45.304Z,12.62
2023-03-02T10:06:45.301Z,12.57
2023-03-02T10:07:45.284Z,12.62
2023-03-02T10:08:45.284Z,12.68
2023-03-02T10:09:45.291Z,13.12
2023-03-02T10:10:45.274Z,12.93
2023-03-02T10:11:45.261Z,12.95
2023-03-02T10:12:45.268Z,12.97
2023-03-02T10:13:47.393Z,13.56
2023-03-02T10:14:46.304Z,13.96
2023-03-02T10:15:45.272Z,14.20
2023-03-02T10:16:45.224Z,14.26
2023-03-02T10:17:45.320Z,14.82
2023-03-02T10:18:45.287Z,14.77
2023-03-02T10:19:45.223Z,14.72
2023-03-02T10:20:45.187Z,14.89
2023-03-02T10:21:45.191Z,14.63
2023-03-02T10:22:45.184Z,14.30
2023-03-02T10:23:45.168Z,14.18
2023-03-02T10:24:45.202Z,14.66
2023-03-02T10:25:45.193Z,14.43
2023-03-02T10:26:45.166Z,14.54
2023-03-02T10:27:45.210Z,14.33
2023-03-02T10:28:45.152Z,14.43
2023-03-02T10:29:45.226Z,14.30
2023-03-02T10:30:45.209Z,14.66
2023-03-02T10:31:45.196Z,14.72
2023-03-02T10:32:45.150Z,14.68
2023-03-02T10:33:45.152Z,14.85
2023-03-02T10:34:45.107Z,14.44
2023-03-02T10:35:45.146Z,14.50
2023-03-02T10:36:45.149Z,14.45
2023-03-02T10:37:45.167Z,14.69
2023-03-02T10:38:45.148Z,14.82
2023-03-02T10:39:45.139Z,15.11
2023-03-02T10:40:45.058Z,15.43
2023-03-02T10:41:45.082Z,15.72
2023-03-02T10:42:45.094Z,15.61
2023-03-02T10:43:45.101Z,15.44
2023-03-02T10:44:45.178Z,15.54
2023-03-02T10:45:45.057Z,15.70
2023-03-02T10:46:45.085Z,15.94
2023-03-02T10:47:45.064Z,15.88
2023-03-02T10:48:49.356Z,16.38
2023-03-02T10:49:46.024Z,16.43
2023-03-02T10:50:44.993Z,16.39
2023-03-02T10:51:44.976Z,16.01
2023-03-02T10:52:57.962Z,15.61
2023-03-02T10:53:46.970Z,15.64
2023-03-02T10:54:44.993Z,15.91
2023-03-02T10:55:44.960Z,16.21
2023-03-02T10:56:44.955Z,16.81
2023-03-02T10:57:44.940Z,17.26
2023-03-02T10:58:44.935Z,17.14
2023-03-02T10:59:44.952Z,17.05
2023-03-02T11:00:44.914Z,17.36
2023-03-02T11:01:44.997Z,17.14
2023-03-02T11:02:44.903Z,16.84
2023-03-02T11:03:44.899Z,16.74
2023-03-02T11:04:44.962Z,16.89
2023-03-02T11:05:45.176Z,16.74
2023-03-02T11:06:44.876Z,16.43
2023-03-02T11:07:44.865Z,16.46
2023-03-02T11:08:44.866Z,16.26
2023-03-02T11:09:44.847Z,16.36
2023-03-02T11:10:44.886Z,16.28
2023-03-02T11:11:44.868Z,15.94
2023-03-02T11:12:44.837Z,16.01
2023-03-02T11:13:44.830Z,16.46
2023-03-02T11:14:44.823Z,16.53
2023-03-02T11:15:44.879Z,17.11
2023-03-02T11:16:44.822Z,17.57
2023-03-02T11:17:44.794Z,17.23
2023-03-02T11:18:44.812Z,17.15
2023-03-02T11:19:44.785Z,16.99
2023-03-02T11:20:44.801Z,17.19
2023-03-02T11:21:44.784Z,16.60
2023-03-02T11:22:44.798Z,15.84
2023-03-02T11:23:44.779Z,16.20
2023-03-02T11:24:44.753Z,17.08
2023-03-02T11:25:44.779Z,17.30
2023-03-02T11:26:44.752Z,17.27
2023-03-02T11:27:44.735Z,17.78
2023-03-02T11:28:44.747Z,17.78
2023-03-02T11:29:44.782Z,17.49
2023-03-02T11:30:44.778Z,17.54
2023-03-02T11:31:44.774Z,17.52
2023-03-02T11:32:44.748Z,17.65
2023-03-02T11:33:44.748Z,17.63
2023-03-02T11:34:44.692Z,17.57
2023-03-02T11:35:44.793Z,17.36
2023-03-02T11:36:44.686Z,17.06
2023-03-02T11:37:44.663Z,17.15
2023-03-02T11:38:44.673Z,17.22
2023-03-02T11:39:54.728Z,16.94
2023-03-02T11:40:47.306Z,17.06
2023-03-02T11:41:45.646Z,17.08
2023-03-02T11:42:44.642Z,17.06
2023-03-02T11:43:44.636Z,17.20
2023-03-02T11:44:44.632Z,16.97
2023-03-02T11:45:44.647Z,16.81
2023-03-02T11:46:44.708Z,16.54
2023-03-02T11:47:47.305Z,16.84
2023-03-02T11:48:45.604Z,16.38
2023-03-02T11:49:44.612Z,16.68
2023-03-02T11:50:44.609Z,16.61
2023-03-02T11:51:53.231Z,16.64
2023-03-02T11:52:46.576Z,17.02
2023-03-02T11:53:44.588Z,17.39
2023-03-02T11:54:44.589Z,17.30
2023-03-02T11:55:44.591Z,17.29
2023-03-02T11:56:44.558Z,17.49
2023-03-02T11:57:44.539Z,17.65
2023-03-02T11:58:44.533Z,16.91
2023-03-02T11:59:44.526Z,17.33
2023-03-02T12:00:44.554Z,17.54
2023-03-02T12:01:44.533Z,17.79
2023-03-02T12:02:44.506Z,17.56
2023-03-02T12:03:44.509Z,17.36
2023-03-02T12:04:44.500Z,17.16
2023-03-02T12:05:44.618Z,17.51
2023-03-02T12:06:44.485Z,17.44
2023-03-02T12:07:44.477Z,17.54
2023-03-02T12:08:44.645Z,17.79
2023-03-02T12:09:44.455Z,17.74
2023-03-02T12:10:45.483Z,17.95
2023-03-02T12:11:44.494Z,18.03
2023-03-02T12:12:44.451Z,18.07
2023-03-02T12:13:44.444Z,18.23
2023-03-02T12:14:44.425Z,18.70
2023-03-02T12:15:44.422Z,18.35
2023-03-02T12:16:44.456Z,18.66
2023-03-02T12:17:44.449Z,18.66
2023-03-02T12:18:44.408Z,18.95
2023-03-02T12:19:44.404Z,19.33
2023-03-02T12:20:44.404Z,18.66
2023-03-02T12:21:44.390Z,18.71
2023-03-02T12:22:44.382Z,18.55
2023-03-02T12:23:44.395Z,18.53
2023-03-02T12:24:44.380Z,18.40
2023-03-02T12:25:44.394Z,18.11
2023-03-02T12:26:44.355Z,18.18
2023-03-02T12:27:44.342Z,18.41
2023-03-02T12:28:44.364Z,18.44
2023-03-02T12:29:44.356Z,18.10
2023-03-02T12:30:44.349Z,17.92
2023-03-02T12:31:44.364Z,18.26
2023-03-02T12:32:44.354Z,18.38
2023-03-02T12:33:44.372Z,18.15
2023-03-02T12:34:44.292Z,18.37
2023-03-02T12:35:44.350Z,18.43
2023-03-02T12:36:44.307Z,18.41
2023-03-02T12:37:44.279Z,18.28
2023-03-02T12:38:44.291Z,18.23
2023-03-02T12:39:44.248Z,17.95
2023-03-02T12:40:44.272Z,18.00
2023-03-02T12:41:44.247Z,17.79
2023-03-02T12:42:44.236Z,17.71
2023-03-02T12:43:44.222Z,17.85
2023-03-02T12:44:44.233Z,18.03
2023-03-02T12:45:44.284Z,18.55
2023-03-02T12:46:44.207Z,19.30
2023-03-02T12:47:44.722Z,19.86
2023-03-02T12:48:44.454Z,19.94
2023-03-02T12:49:44.185Z,20.48
2023-03-02T12:50:44.202Z,20.52
2023-03-02T12:51:44.218Z,20.36
2023-03-02T12:52:44.173Z,18.96
2023-03-02T12:53:44.169Z,18.83
2023-03-02T12:54:44.158Z,18.98
2023-03-02T12:55:44.161Z,19.37
2023-03-02T12:56:44.123Z,19.88
2023-03-02T12:57:44.118Z,19.84
2023-03-02T12:58:44.111Z,19.76
2023-03-02T12:59:44.117Z,19.36